Time;durP1;ratioP1;P1;durP2;ratioP2;P2;SDS_P1;SDS_P2;PMS_P1;PMS_P2;Temp;Humidity;BMP_temperature;BMP_pressure;BME280_temperature;BME280_humidity;BME280_pressure;Samples;Min_cycle;Max_cycle;Signal;HPM_P1;HPM_P2
2022/06/29 00:01:46;;;;;;;13.57;9.70;;;;;;;-145.69;100.00;71207.38;5056536;28;20202;-81
2022/06/29 00:04:13;;;;;;;14.75;9.68;;;;;;;-145.69;100.00;71205.41;5056500;28;20214;-80
2022/06/29 00:06:41;;;;;;;10.52;7.93;;;;;;;-145.69;100.00;71227.28;5056252;28;20199;-80
2022/06/29 00:09:07;;;;;;;9.13;7.65;;;;;;;-145.69;100.00;71235.25;5056105;28;20200;-81
2022/06/29 00:11:34;;;;;;;10.73;8.57;;;;;;;-145.69;100.00;71239.22;5058679;28;20226;-80
2022/06/29 00:14:00;;;;;;;13.80;8.05;;;;;;;-145.69;100.00;71249.19;5056385;28;20234;-80
2022/06/29 00:16:27;;;;;;;12.23;7.95;;;;;;;-145.69;100.00;71261.13;5056181;28;20196;-80
2022/06/29 00:18:54;;;;;;;11.75;7.88;;;;;;;-145.69;100.00;71265.09;5056029;28;20696;-80
2022/06/29 00:21:20;;;;;;;13.18;8.32;;;;;;;-145.69;100.00;71257.13;5055990;28;20214;-81
2022/06/29 00:23:48;;;;;;;11.48;8.63;;;;;;;-145.69;100.00;71255.16;5055937;28;20210;-81
2022/06/29 00:26:14;;;;;;;12.20;8.38;;;;;;;-145.69;100.00;71263.09;5056118;28;20200;-81
2022/06/29 00:28:41;;;;;;;12.20;8.52;;;;;;;-145.69;100.00;71273.06;5055964;28;20218;-80
2022/06/29 00:31:08;;;;;;;9.98;7.88;;;;;;;-145.69;100.00;71271.06;5055987;28;20203;-81
2022/06/29 00:33:34;;;;;;;13.80;9.40;;;;;;;-145.69;100.00;71263.09;5055760;28;20318;-81
2022/06/29 00:36:01;;;;;;;16.75;9.50;;;;;;;-145.69;100.00;71247.19;5055613;28;20282;-80
2022/06/29 00:38:27;;;;;;;13.73;9.13;;;;;;;-145.69;100.00;71251.16;5055910;28;20199;-81
2022/06/29 00:40:55;;;;;;;12.40;9.73;;;;;;;-145.69;100.00;71249.19;5055533;28;20206;-81
2022/06/29 00:43:23;;;;;;;13.32;10.55;;;;;;;-145.69;100.00;71239.22;5055835;28;20233;-81
2022/06/29 00:45:50;;;;;;;16.52;10.60;;;;;;;-145.69;100.00;71229.28;5055595;28;20298;-80
2022/06/29 00:48:17;;;;;;;11.68;8.95;;;;;;;-145.69;100.00;71235.25;5055334;28;20230;-81
2022/06/29 00:50:46;;;;;;;15.80;10.00;;;;;;;-145.69;100.00;71251.16;5055359;28;20288;-80
2022/06/29 00:53:15;;;;;;;15.63;9.18;;;;;;;-145.69;100.00;71263.09;5055434;28;20202;-81
2022/06/29 00:55:47;;;;;;;15.63;10.63;;;;;;;-145.69;100.00;71259.13;5055377;28;20863;-81
2022/06/29 00:58:21;;;;;;;12.45;8.70;;;;;;;-145.69;100.00;71259.13;5055400;28;20207;-82
2022/06/29 01:00:47;;;;;;;16.50;10.48;;;;;;;-145.69;100.00;71269.06;5055388;28;20231;-82
2022/06/29 01:03:14;;;;;;;16.08;10.65;;;;;;;-145.69;100.00;71263.09;5055150;28;20199;-81
2022/06/29 01:05:41;;;;;;;17.23;12.18;;;;;;;-145.69;100.00;71263.09;5054353;28;20877;-80
2022/06/29 01:08:07;;;;;;;14.75;10.98;;;;;;;-145.69;100.00;71253.16;5055371;28;20199;-80
2022/06/29 01:10:34;;;;;;;17.98;11.55;;;;;;;-145.69;100.00;71255.16;5055167;28;20203;-80
2022/06/29 01:13:00;;;;;;;13.93;9.77;;;;;;;-145.69;100.00;71261.13;5054956;28;20206;-80
2022/06/29 01:15:28;;;;;;;15.82;10.30;;;;;;;-145.69;100.00;71261.13;5055018;28;20590;-79
2022/06/29 01:17:55;;;;;;;13.25;8.82;;;;;;;-145.69;100.00;71283.00;5054908;28;20200;-80
2022/06/29 01:20:22;;;;;;;16.10;10.25;;;;;;;-145.69;100.00;71273.06;5054995;28;20199;-80
2022/06/29 01:22:52;;;;;;;18.42;11.95;;;;;;;-145.69;100.00;71263.09;5055002;28;20195;-81
2022/06/29 01:25:18;;;;;;;22.02;12.07;;;;;;;-145.69;100.00;71249.19;5054759;28;20651;-81
2022/06/29 01:27:45;;;;;;;19.23;12.30;;;;;;;-145.69;100.00;71237.25;5054842;28;20204;-80
2022/06/29 01:30:12;;;;;;;16.48;10.88;;;;;;;-145.69;100.00;71243.22;5054861;28;20203;-80
2022/06/29 01:32:39;;;;;;;14.25;10.15;;;;;;;-145.69;100.00;71247.19;5054936;28;20199;-80
2022/06/29 01:35:09;;;;;;;15.88;10.85;;;;;;;-145.69;100.00;71239.22;5054556;28;20698;-81
2022/06/29 01:37:35;;;;;;;18.77;10.85;;;;;;;-145.69;100.00;71245.19;5054748;28;20200;-81
2022/06/29 01:40:04;;;;;;;15.75;10.68;;;;;;;-145.69;100.00;71245.19;5054992;28;20207;-80
2022/06/29 01:42:31;;;;;;;19.25;10.23;;;;;;;-145.69;100.00;71249.19;5054491;28;20210;-80
2022/06/29 01:44:57;;;;;;;16.95;9.45;;;;;;;-145.69;100.00;71257.13;5054440;28;20547;-81
2022/06/29 01:47:24;;;;;;;15.48;10.45;;;;;;;-145.69;100.00;71239.22;5068557;28;20252;-80
2022/06/29 01:49:50;;;;;;;16.70;11.07;;;;;;;-145.69;100.00;71243.22;5074216;28;20608;-79
2022/06/29 01:52:17;;;;;;;14.32;10.45;;;;;;;-145.69;100.00;71249.19;5073890;28;20202;-80
2022/06/29 01:54:44;;;;;;;27.02;12.25;;;;;;;-145.69;100.00;71233.25;5074151;28;20226;-80
2022/06/29 01:57:11;;;;;;;15.10;10.88;;;;;;;-145.69;100.00;71219.34;5074107;28;20673;-80
2022/06/29 01:59:38;;;;;;;19.50;11.52;;;;;;;-145.69;100.00;71217.34;5074379;28;20550;-81
2022/06/29 02:02:05;;;;;;;22.38;12.52;;;;;;;-145.69;100.00;71209.38;5072557;28;20198;-81
2022/06/29 02:04:31;;;;;;;21.77;12.05;;;;;;;-145.69;100.00;71203.41;5054052;28;20199;-80
2022/06/29 02:06:57;;;;;;;20.27;12.57;;;;;;;-145.69;100.00;71197.44;5053997;28;20645;-81
2022/06/29 02:09:24;;;;;;;18.75;12.48;;;;;;;-145.69;100.00;71193.47;5054121;28;20191;-81
2022/06/29 02:11:50;;;;;;;21.20;12.48;;;;;;;-145.69;100.00;71191.47;5053961;28;20669;-81
2022/06/29 02:14:18;;;;;;;19.33;12.27;;;;;;;-145.69;100.00;71201.41;5054031;28;20230;-81
2022/06/29 02:16:45;;;;;;;17.23;12.25;;;;;;;-145.69;100.00;71207.38;5053968;28;20199;-81
2022/06/29 02:19:11;;;;;;;18.85;11.60;;;;;;;-145.69;100.00;71221.31;5053789;28;20199;-81
2022/06/29 02:21:38;;;;;;;15.25;11.02;;;;;;;-145.69;100.00;71219.34;5053839;28;20211;-81
2022/06/29 02:24:05;;;;;;;17.98;10.90;;;;;;;-145.69;100.00;71215.34;5053701;28;20207;-80
2022/06/29 02:26:31;;;;;;;17.60;11.32;;;;;;;-145.69;100.00;71209.38;5053715;28;20673;-79
2022/06/29 02:28:58;;;;;;;19.17;11.05;;;;;;;-145.69;100.00;71213.38;5053820;28;20207;-79
2022/06/29 02:37:05;;;;;;;16.20;10.68;;;;;;;-145.69;100.00;71223.31;5049765;28;20206;-79
2022/06/29 02:39:31;;;;;;;12.85;9.60;;;;;;;-145.69;100.00;71233.25;5053545;28;20199;-80
2022/06/29 02:41:57;;;;;;;14.88;8.82;;;;;;;-145.69;100.00;71245.19;5053539;28;20208;-79
2022/06/29 02:44:25;;;;;;;17.40;11.95;;;;;;;-145.69;100.00;71235.25;5053081;28;20446;-80
2022/06/29 02:46:55;;;;;;;20.00;12.68;;;;;;;-145.69;100.00;71221.31;5053678;28;20666;-80
2022/06/29 02:49:21;;;;;;;14.90;10.88;;;;;;;-145.69;100.00;71233.25;5052989;28;20228;-79
2022/06/29 02:51:48;;;;;;;13.05;9.63;;;;;;;-145.69;100.00;71247.19;5053475;28;20195;-80
2022/06/29 02:54:14;;;;;;;13.75;8.40;;;;;;;-145.69;100.00;71251.16;5053332;28;20227;-81
2022/06/29 02:56:41;;;;;;;18.20;9.50;;;;;;;-145.69;100.00;71259.13;5053273;28;20204;-80
2022/06/29 02:59:07;;;;;;;13.07;10.02;;;;;;;-145.69;100.00;71269.06;5053219;28;20203;-80
2022/06/29 03:01:34;;;;;;;16.80;9.20;;;;;;;-145.69;100.00;71271.06;5053058;28;20203;-80
2022/06/29 03:04:01;;;;;;;17.85;11.77;;;;;;;-145.69;100.00;71249.19;5052150;28;20298;-80
2022/06/29 03:06:28;;;;;;;19.35;11.75;;;;;;;-145.69;100.00;71245.19;5053242;28;20207;-79
2022/06/29 03:08:54;;;;;;;22.85;13.25;;;;;;;-145.69;100.00;71239.22;5053255;28;20672;-81
2022/06/29 03:11:21;;;;;;;30.85;14.60;;;;;;;-145.69;100.00;71223.31;5053292;28;20207;-81
2022/06/29 03:13:47;;;;;;;18.33;12.20;;;;;;;-145.69;100.00;71231.28;5052855;28;20650;-80
2022/06/29 03:16:14;;;;;;;21.58;13.40;;;;;;;-145.69;100.00;71231.28;5053415;28;20199;-79
2022/06/29 03:18:40;;;;;;;24.38;10.90;;;;;;;-145.69;100.00;71243.22;5052780;28;20203;-80
2022/06/29 03:21:09;;;;;;;20.73;10.27;;;;;;;-145.69;100.00;71269.06;5052888;28;20203;-80
2022/06/29 03:23:35;;;;;;;14.38;10.15;;;;;;;-145.69;100.00;71273.06;5053104;28;20202;-82
2022/06/29 03:26:02;;;;;;;12.27;9.05;;;;;;;-145.69;100.00;71283.00;5052650;28;20685;-81
2022/06/29 03:28:31;;;;;;;15.80;9.88;;;;;;;-145.69;100.00;71290.97;5052786;28;20203;-82
2022/06/29 03:30:57;;;;;;;18.40;9.60;;;;;;;-145.69;100.00;71298.94;5052699;28;20203;-82
2022/06/29 03:33:24;;;;;;;17.77;10.13;;;;;;;-145.69;100.00;71304.91;5052569;28;20290;-81
2022/06/29 03:35:51;;;;;;;14.13;9.07;;;;;;;-145.69;100.00;71310.84;5052921;28;20231;-81
2022/06/29 03:38:18;;;;;;;15.88;10.98;;;;;;;-145.69;100.00;71292.94;5052760;28;20199;-81
2022/06/29 03:40:45;;;;;;;22.05;12.75;;;;;;;-145.69;100.00;71281.00;5052734;28;20204;-81
2022/06/29 03:43:11;;;;;;;20.38;12.73;;;;;;;-145.69;100.00;71281.00;5052664;28;20532;-81
2022/06/29 03:45:38;;;;;;;16.90;12.35;;;;;;;-145.69;100.00;71283.00;5052492;28;20199;-81
2022/06/29 03:48:06;;;;;;;20.75;12.48;;;;;;;-145.69;100.00;71283.00;5052310;28;20231;-80
2022/06/29 03:50:33;;;;;;;20.65;12.48;;;;;;;-145.69;100.00;71283.00;5052646;28;20264;-79
2022/06/29 03:53:00;;;;;;;24.42;12.27;;;;;;;-145.69;100.00;71286.97;5052501;28;20210;-80
2022/06/29 03:55:28;;;;;;;21.98;12.32;;;;;;;-145.69;100.00;71283.00;5052498;28;20352;-80
2022/06/29 03:57:54;;;;;;;21.35;13.27;;;;;;;-145.69;100.00;71277.03;5054880;28;20214;-83
2022/06/29 04:00:21;;;;;;;19.92;13.27;;;;;;;-145.69;100.00;71273.06;5052505;28;20207;-82
2022/06/29 04:02:47;;;;;;;20.80;12.30;;;;;;;-145.69;100.00;71273.06;5052456;28;20207;-81
2022/06/29 04:05:14;;;;;;;20.30;12.82;;;;;;;-145.69;100.00;71249.19;5052500;28;20215;-80
2022/06/29 04:07:40;;;;;;;21.58;12.90;;;;;;;-145.69;100.00;71239.22;5052679;28;20203;-79
2022/06/29 04:10:11;;;;;;;28.85;16.40;;;;;;;-145.69;100.00;71211.38;5052517;28;20199;-81
2022/06/29 04:12:40;;;;;;;26.13;15.07;;;;;;;-145.69;100.00;71215.34;5052302;28;20210;-81
2022/06/29 04:15:08;;;;;;;32.55;15.25;;;;;;;-145.69;100.00;71203.41;5052723;28;20235;-81
2022/06/29 04:17:35;;;;;;;26.20;15.40;;;;;;;-145.69;100.00;71195.47;5056297;28;20218;-82
2022/06/29 04:20:01;;;;;;;27.55;14.77;;;;;;;-145.69;100.00;71187.50;5056302;28;20225;-81
2022/06/29 04:22:28;;;;;;;28.42;16.73;;;;;;;-145.69;100.00;71187.50;5056154;28;20204;-81
2022/06/29 04:24:55;;;;;;;22.65;13.82;;;;;;;-145.69;100.00;71189.47;5056047;28;20226;-81
2022/06/29 04:27:21;;;;;;;17.13;11.55;;;;;;;-145.69;100.00;71203.41;5055965;28;20298;-81
2022/06/29 04:29:49;;;;;;;19.17;10.23;;;;;;;-145.69;100.00;71217.34;5055929;28;20199;-80
2022/06/29 04:32:15;;;;;;;17.10;10.95;;;;;;;-145.69;100.00;71213.38;5055983;28;20203;-81
2022/06/29 04:34:42;;;;;;;15.10;9.75;;;;;;;-145.69;100.00;71215.34;5055971;28;20231;-81
2022/06/29 04:37:09;;;;;;;22.30;11.00;;;;;;;-145.69;100.00;71213.38;5055692;28;20692;-81
2022/06/29 04:39:36;;;;;;;14.95;9.98;;;;;;;-145.69;100.00;71211.38;5055653;28;20206;-81
2022/06/29 04:42:03;;;;;;;20.55;11.90;;;;;;;-145.69;100.00;71195.47;5055609;28;20230;-81
2022/06/29 04:44:29;;;;;;;15.48;10.35;;;;;;;-145.69;100.00;71201.41;5055591;28;20207;-81
2022/06/29 04:46:57;;;;;;;15.52;10.70;;;;;;;-145.69;100.00;71205.41;5055819;28;20206;-80
2022/06/29 04:49:23;;;;;;;19.65;9.80;;;;;;;-145.69;100.00;71209.38;5055264;28;20227;-81
2022/06/29 04:51:50;;;;;;;14.75;9.82;;;;;;;-145.69;100.00;71211.38;5055516;28;20204;-81
2022/06/29 04:54:16;;;;;;;16.05;9.65;;;;;;;-145.69;100.00;71205.41;5055288;28;20561;-81
2022/06/29 04:56:43;;;;;;;13.48;10.10;;;;;;;-145.69;100.00;71191.47;5055299;28;20661;-80
2022/06/29 04:59:09;;;;;;;14.45;9.90;;;;;;;-145.69;100.00;71179.53;5055455;28;20207;-80
2022/06/29 05:01:37;;;;;;;16.90;10.88;;;;;;;-145.69;100.00;71151.69;5055210;28;20714;-80
2022/06/29 05:04:05;;;;;;;17.77;11.32;;;;;;;-145.69;100.00;71127.81;5055246;28;20200;-80
2022/06/29 05:06:31;;;;;;;19.13;13.13;;;;;;;-145.69;100.00;71084.03;5055286;28;20211;-81
2022/06/29 05:08:58;;;;;;;20.17;13.52;;;;;;;-145.69;100.00;71070.09;5055243;28;20207;-81
2022/06/29 05:11:25;;;;;;;18.13;11.40;;;;;;;-145.69;100.00;71044.22;5055342;28;20208;-81
2022/06/29 05:13:52;;;;;;;15.60;11.50;;;;;;;-145.69;100.00;71010.41;5055109;28;20231;-81
2022/06/29 05:16:19;;;;;;;16.25;12.38;;;;;;;-145.69;100.00;70960.66;5054555;28;20455;-81
2022/06/29 05:18:46;;;;;;;15.82;11.20;;;;;;;-145.69;100.00;70942.75;5054879;28;20294;-81
2022/06/29 05:21:14;;;;;;;14.45;10.40;;;;;;;-145.69;100.00;70928.84;5055011;28;20206;-81
2022/06/29 05:23:41;;;;;;;10.68;8.50;;;;;;;-145.69;100.00;70920.88;5054871;28;20207;-80
2022/06/29 05:26:07;;;;;;;10.38;7.80;;;;;;;-145.69;100.00;70936.78;5055019;28;20207;-80
2022/06/29 05:28:34;;;;;;;10.00;7.07;;;;;;;-145.69;100.00;70932.81;5053995;28;20199;-80
2022/06/29 05:31:00;;;;;;;9.95;7.78;;;;;;;-145.69;100.00;70916.91;5054706;28;20694;-81
2022/06/29 05:33:35;;;;;;;10.07;7.22;;;;;;;-145.69;100.00;70897.00;5054716;28;20562;-81
2022/06/29 05:36:02;;;;;;;18.13;7.28;;;;;;;-145.69;100.00;70908.94;5054618;28;20317;-81
2022/06/29 05:38:30;;;;;;;12.80;8.05;;;;;;;-145.69;100.00;70883.06;5054770;28;20208;-80
2022/06/29 05:40:57;;;;;;;12.80;9.55;;;;;;;-145.69;100.00;70837.31;5054727;28;20210;-80
2022/06/29 05:43:23;;;;;;;10.88;7.53;;;;;;;-145.69;100.00;70813.44;5054130;28;20565;-80
2022/06/29 05:45:50;;;;;;;12.02;8.30;;;;;;;-145.69;100.00;70769.66;5054451;28;20195;-81
2022/06/29 05:48:17;;;;;;;10.23;6.57;;;;;;;-145.69;100.00;70755.75;5054300;28;20270;-81
2022/06/29 05:50:44;;;;;;;11.77;6.97;;;;;;;-145.69;100.00;70723.91;5054417;28;20210;-81
2022/06/29 05:53:10;;;;;;;9.50;6.43;;;;;;;-145.69;100.00;70735.84;5053899;28;20442;-81
2022/06/29 05:55:39;;;;;;;7.85;5.63;;;;;;;-145.69;100.00;70674.16;5054318;28;20230;-81
2022/06/29 05:58:06;;;;;;;9.55;6.13;;;;;;;-145.69;100.00;70658.25;5054349;28;20234;-80
2022/06/29 06:00:33;;;;;;;10.57;5.50;;;;;;;-145.69;100.00;70672.19;5054201;28;20204;-80
2022/06/29 06:02:59;;;;;;;9.57;5.53;;;;;;;-145.69;100.00;70614.47;5054060;28;20196;-80
2022/06/29 06:05:26;;;;;;;8.00;4.55;;;;;;;-145.69;100.00;70590.63;5056368;28;20195;-81
2022/06/29 06:07:52;;;;;;;5.55;4.18;;;;;;;-145.69;100.00;70582.66;5054218;28;20223;-81
2022/06/29 06:10:19;;;;;;;7.63;4.80;;;;;;;-145.69;100.00;70592.59;5054053;28;20195;-82
2022/06/29 06:12:46;;;;;;;5.90;4.35;;;;;;;-145.69;100.00;70622.44;5053886;28;20206;-81
2022/06/29 06:15:13;;;;;;;7.35;4.85;;;;;;;-145.69;100.00;70600.56;5053773;28;20223;-81
2022/06/29 06:17:39;;;;;;;6.32;4.45;;;;;;;-145.69;100.00;70650.28;5053825;28;20294;-79
2022/06/29 06:20:07;;;;;;;4.80;4.20;;;;;;;-145.69;100.00;70638.34;5053984;28;20218;-80
2022/06/29 06:22:33;;;;;;;7.18;4.53;;;;;;;-145.69;100.00;70650.28;5053883;28;20230;-79
2022/06/29 06:25:00;;;;;;;9.60;4.40;;;;;;;-145.69;100.00;70638.34;5053592;28;20750;-80
2022/06/29 06:27:26;;;;;;;7.30;4.30;;;;;;;-145.69;100.00;70630.41;5054071;28;20200;-80
2022/06/29 06:29:54;;;;;;;6.00;4.32;;;;;;;-145.69;100.00;70586.63;5052625;28;20436;-81
2022/06/29 06:32:21;;;;;;;5.28;3.70;;;;;;;-145.69;100.00;70538.88;5053567;28;20210;-81
2022/06/29 06:34:47;;;;;;;7.50;4.05;;;;;;;-145.69;100.00;70520.97;5053683;28;20206;-80
2022/06/29 06:37:13;;;;;;;6.43;3.88;;;;;;;-145.69;100.00;70461.31;5053436;28;20211;-81
2022/06/29 06:41:21;;;;;;;8.25;4.20;;;;;;;-145.69;100.00;70437.44;5053293;28;20200;-80
2022/06/29 06:42:25;;;;;;;7.65;3.80;;;;;;;-145.69;97.83;70403.59;5053395;28;20539;-81
2022/06/29 06:44:53;;;;;;;7.35;3.47;;;;;;;-145.69;97.60;70375.75;5053214;28;20225;-79
2022/06/29 06:47:20;;;;;;;5.70;3.75;;;;;;;-145.69;90.50;70316.06;5053350;28;20200;-80
2022/06/29 06:49:49;;;;;;;6.53;3.40;;;;;;;-145.69;93.90;70401.63;5053254;28;20196;-81
2022/06/29 06:52:17;;;;;;;5.22;3.25;;;;;;;-145.69;96.16;70351.88;5053296;28;20199;-82
2022/06/29 06:54:44;;;;;;;3.97;2.70;;;;;;;-145.69;90.21;70294.19;5053488;28;20199;-81
2022/06/29 06:57:11;;;;;;;3.67;3.08;;;;;;;-145.69;91.15;70256.41;5053121;28;20211;-81
2022/06/29 06:59:38;;;;;;;4.65;2.60;;;;;;;-145.69;85.45;70212.63;5053062;28;20200;-81
2022/06/29 07:02:06;;;;;;;4.28;2.90;;;;;;;-145.69;85.45;70262.38;5053172;28;20231;-81
2022/06/29 07:04:32;;;;;;;5.10;3.03;;;;;;;-145.69;94.49;70401.63;5053048;28;20503;-80
2022/06/29 07:06:59;;;;;;;6.30;3.30;;;;;;;-145.69;93.50;70411.56;5053139;28;20199;-81
2022/06/29 07:09:25;;;;;;;3.95;3.13;;;;;;;-145.69;91.52;70399.63;5053142;28;20237;-81
2022/06/29 07:11:52;;;;;;;5.68;2.90;;;;;;;-145.69;94.98;70387.69;5053369;28;20208;-79
2022/06/29 07:14:18;;;;;;;3.53;2.97;;;;;;;-145.69;98.47;70467.28;5053103;28;20206;-79
2022/06/29 07:16:45;;;;;;;6.40;3.30;;;;;;;-145.69;97.88;70493.13;5052871;28;20259;-80
2022/06/29 07:19:12;;;;;;;4.30;3.65;;;;;;;-145.69;100.00;70511.03;5052977;28;20294;-79
2022/06/29 07:21:39;;;;;;;5.50;3.75;;;;;;;-145.69;99.28;70532.91;5052983;28;20200;-80
2022/06/29 07:24:06;;;;;;;6.97;3.53;;;;;;;-145.69;100.00;70491.13;5052869;28;20209;-80
2022/06/29 07:26:33;;;;;;;5.05;3.42;;;;;;;-145.69;96.59;70483.19;5052709;28;20684;-79
2022/06/29 07:28:59;;;;;;;3.72;3.13;;;;;;;-145.69;94.11;70379.72;5052819;28;20638;-80
2022/06/29 07:31:25;;;;;;;7.07;3.63;;;;;;;-145.69;91.50;70296.19;5052896;28;20211;-81
2022/06/29 07:33:52;;;;;;;5.25;3.00;;;;;;;-145.69;88.21;70284.25;5052805;28;20207;-81
2022/06/29 07:36:20;;;;;;;4.75;3.08;;;;;;;-145.69;85.47;70246.44;5052636;28;20633;-81
2022/06/29 07:38:46;;;;;;;5.82;3.25;;;;;;;-145.69;89.20;70270.31;5052656;28;20199;-80
2022/06/29 07:41:13;;;;;;;3.65;3.20;;;;;;;-145.69;86.19;70302.16;5052588;28;20203;-80
2022/06/29 07:43:39;;;;;;;4.25;3.15;;;;;;;-145.69;88.48;70286.25;5052819;28;20535;-80
2022/06/29 07:46:08;;;;;;;4.53;3.35;;;;;;;-145.69;85.41;70208.66;5052756;28;20199;-81
2022/06/29 07:48:35;;;;;;;6.63;3.00;;;;;;;-145.69;80.31;70158.94;5052386;28;20229;-80
2022/06/29 07:51:04;;;;;;;4.47;2.22;;;;;;;-145.69;78.11;70129.09;5054630;28;20199;-81
2022/06/29 07:53:32;;;;;;;4.72;2.40;;;;;;;-145.69;79.00;70089.31;5056697;28;20650;-80
2022/06/29 07:55:59;;;;;;;6.57;2.67;;;;;;;-145.69;76.18;70131.06;5056600;28;20227;-79
2022/06/29 07:58:25;;;;;;;5.05;2.80;;;;;;;-145.69;79.71;70202.69;5057841;28;20195;-80
2022/06/29 08:00:53;;;;;;;5.90;2.67;;;;;;;-145.69;78.48;70168.88;5057306;28;20207;-80
2022/06/29 08:03:20;;;;;;;5.50;2.65;;;;;;;-145.69;77.90;70180.81;5056552;28;20335;-80
2022/06/29 08:05:47;;;;;;;5.28;2.75;;;;;;;-145.69;77.79;70192.75;5056540;28;20214;-81
2022/06/29 08:08:13;;;;;;;4.15;2.45;;;;;;;-145.69;80.03;70222.56;5056305;28;20306;-81
2022/06/29 08:10:41;;;;;;;7.82;3.08;;;;;;;-145.69;84.14;70314.09;5056243;28;20654;-80
2022/06/29 08:13:08;;;;;;;5.78;3.05;;;;;;;-145.69;82.35;70276.28;5056357;28;20233;-80
2022/06/29 08:15:35;;;;;;;4.93;3.30;;;;;;;-145.69;81.21;70284.25;5055792;28;20438;-80
2022/06/29 08:18:02;;;;;;;2.95;2.50;;;;;;;-145.69;79.17;70236.50;5056191;28;20207;-80
2022/06/29 08:20:30;;;;;;;7.00;3.42;;;;;;;-145.69;78.92;70180.81;5055916;28;20196;-80
2022/06/29 08:22:56;;;;;;;5.47;2.40;;;;;;;-145.69;72.96;70101.25;5056290;28;20613;-81
2022/06/29 08:25:23;;;;;;;4.03;2.53;;;;;;;-145.69;76.25;70139.03;5056087;28;20565;-80
2022/06/29 08:27:53;;;;;;;3.88;2.92;;;;;;;-145.69;76.21;70061.44;5056064;28;20206;-81
2022/06/29 08:30:20;;;;;;;4.38;3.50;;;;;;;-145.69;76.73;70218.59;5055937;28;20196;-81
2022/06/29 08:32:46;;;;;;;5.20;2.70;;;;;;;-145.69;79.60;70188.75;5055897;28;20196;-80
2022/06/29 08:35:14;;;;;;;3.95;2.80;;;;;;;-145.69;78.56;70176.81;5055722;28;20227;-81
2022/06/29 08:37:41;;;;;;;4.20;2.78;;;;;;;-145.69;76.28;70129.09;5055797;28;20228;-80
2022/06/29 08:40:10;;;;;;;2.80;1.90;;;;;;;-145.69;74.81;70039.56;5055786;28;20199;-81
2022/06/29 08:42:38;;;;;;;3.95;2.67;;;;;;;-145.69;72.61;70115.16;5055869;28;20226;-80
2022/06/29 08:45:07;;;;;;;3.70;2.55;;;;;;;-145.69;77.36;70101.25;5055572;28;20598;-81
2022/06/29 08:47:34;;;;;;;6.30;2.67;;;;;;;-145.69;72.06;70017.69;5055499;28;20571;-81
2022/06/29 08:50:03;;;;;;;4.63;2.55;;;;;;;-145.69;70.92;70011.72;5055540;28;20249;-80
2022/06/29 08:52:30;;;;;;;4.07;2.60;;;;;;;-145.69;71.13;69967.97;5054414;28;20509;-80
2022/06/29 08:54:57;;;;;;;3.25;2.50;;;;;;;-145.69;68.31;69914.25;5055521;28;20196;-81
2022/06/29 08:57:26;;;;;;;9.82;2.70;;;;;;;-145.69;66.56;69963.97;5055386;28;20234;-80
2022/06/29 08:59:54;;;;;;;3.28;2.33;;;;;;;-145.69;72.44;69940.13;5055357;28;20205;-80
2022/06/29 09:02:22;;;;;;;4.90;2.45;;;;;;;-145.69;68.18;69985.88;5053910;28;20298;-80
2022/06/29 09:04:49;;;;;;;5.22;2.88;;;;;;;-145.69;68.59;69995.81;5055407;28;20207;-79
2022/06/29 09:07:16;;;;;;;3.15;2.20;;;;;;;-145.69;67.48;69981.88;5055170;28;20210;-80
2022/06/29 09:09:58;;;;;;;3.40;2.30;;;;;;;-145.69;69.57;69995.81;5055391;28;20207;-80
2022/06/29 09:12:25;;;;;;;2.47;2.25;;;;;;;-145.69;68.01;70047.53;5055006;28;20670;-80
2022/06/29 09:14:52;;;;;;;2.63;2.25;;;;;;;-145.69;74.54;70119.13;5054916;28;20203;-80
2022/06/29 09:17:18;;;;;;;4.65;2.42;;;;;;;-145.69;71.81;70097.25;5055282;28;20211;-80
2022/06/29 09:19:48;;;;;;;5.38;2.60;;;;;;;-145.69;75.46;70176.81;5055142;28;20249;-80
2022/06/29 09:22:15;;;;;;;5.15;2.40;;;;;;;-145.69;72.04;70148.97;5055037;28;20257;-80
2022/06/29 09:24:42;;;;;;;3.15;2.50;;;;;;;-145.69;80.54;70145.00;5054871;28;20246;-81
2022/06/29 09:27:11;;;;;;;3.33;2.40;;;;;;;-145.69;75.19;70081.34;5055076;28;20203;-81
2022/06/29 09:29:41;;;;;;;4.82;2.17;;;;;;;-145.69;72.48;70085.31;5054710;28;20199;-80
2022/06/29 09:32:11;;;;;;;3.95;2.22;;;;;;;-145.69;73.75;70097.25;5055077;28;20535;-82
2022/06/29 09:34:39;;;;;;;5.63;2.10;;;;;;;-145.69;67.17;70085.31;5054829;28;20504;-81
2022/06/29 09:37:09;;;;;;;7.38;2.25;;;;;;;-145.69;67.71;70049.50;5054785;28;20227;-80
2022/06/29 09:39:36;;;;;;;5.15;2.20;;;;;;;-145.69;66.04;70065.44;5054592;28;20200;-80
2022/06/29 09:42:03;;;;;;;3.55;2.03;;;;;;;-145.69;65.56;70127.09;5054547;28;20247;-80
2022/06/29 09:44:30;;;;;;;3.55;1.70;;;;;;;-145.69;65.86;70196.72;5054633;28;20203;-80
2022/06/29 09:46:58;;;;;;;3.47;2.20;;;;;;;-145.69;69.42;70166.88;5054471;28;20199;-79
2022/06/29 09:49:27;;;;;;;6.00;2.03;;;;;;;-145.69;69.81;70145.00;5054249;28;20240;-80
2022/06/29 09:51:56;;;;;;;3.50;2.35;;;;;;;-145.69;68.60;70145.00;5054437;28;20199;-80
2022/06/29 09:54:30;;;;;;;3.88;1.80;;;;;;;-145.69;66.85;70156.94;5056539;28;20227;-80
2022/06/29 09:57:00;;;;;;;5.22;1.98;;;;;;;-145.69;65.88;70049.50;5054342;28;20230;-80
2022/06/29 10:04:56;;;;;;;2.13;1.70;;;;;;;-145.69;58.21;69816.78;5050327;28;20192;-80
2022/06/29 10:07:23;;;;;;;3.95;1.83;;;;;;;-145.69;59.00;70015.69;5054299;28;20212;-81
2022/06/29 10:09:50;;;;;;;5.75;2.08;;;;;;;-145.69;63.24;70073.38;5054121;28;20203;-80
2022/06/29 10:15:16;;;;;;;5.47;1.70;;;;;;;-145.69;64.11;70021.66;5053761;28;20195;-80
2022/06/29 10:17:53;;;;;;;4.78;2.00;;;;;;;-145.69;61.92;70037.59;5053962;28;20321;-80
2022/06/29 10:20:35;;;;;;;3.90;1.92;;;;;;;-145.69;66.97;69995.81;5053889;28;20654;-80
2022/06/29 10:23:01;;;;;;;3.63;2.30;;;;;;;-145.69;59.96;69898.34;5053902;28;20199;-81
2022/06/29 10:25:29;;;;;;;6.30;2.22;;;;;;;-145.69;60.60;69946.09;5053594;28;20673;-81
2022/06/29 10:28:16;;;;;;;4.05;1.85;;;;;;;-145.69;60.25;69914.25;5053528;28;20208;-80
2022/06/29 10:30:43;;;;;;;7.30;2.55;;;;;;;-145.69;61.59;69973.94;5053823;28;20256;-82
2022/06/29 10:33:33;;;;;;;4.47;1.73;;;;;;;-145.69;64.35;70005.75;5053653;28;20204;-81
2022/06/29 10:36:03;;;;;;;3.15;1.73;;;;;;;-145.69;63.51;70085.31;5053288;28;20676;-80
2022/06/29 10:38:31;;;;;;;4.80;1.90;;;;;;;-145.69;63.11;70029.63;5053714;28;20234;-81
2022/06/29 10:43:07;;;;;;;4.13;2.17;;;;;;;-145.69;63.74;70035.59;5053558;28;20211;-82
2022/06/29 10:43:56;;;;;;;4.38;2.28;;;;;;;-145.69;65.46;70047.53;5053447;28;20242;-81
2022/06/29 10:46:23;;;;;;;5.45;2.20;;;;;;;-145.69;68.15;70101.25;5053687;28;20231;-83
2022/06/29 10:49:20;;;;;;;7.07;2.30;;;;;;;-145.69;72.09;70147.00;5053130;28;20331;-81
2022/06/29 10:51:48;;;;;;;5.57;2.70;;;;;;;-145.69;76.21;70238.50;5053504;28;20558;-83
2022/06/29 10:54:23;;;;;;;4.70;2.10;;;;;;;-145.69;79.61;70254.41;5053294;28;20201;-80
2022/06/29 10:56:52;;;;;;;3.60;2.47;;;;;;;-145.69;79.67;70220.59;5052897;28;20686;-80
2022/06/29 10:59:34;;;;;;;7.00;2.35;;;;;;;-145.69;79.91;70206.66;5052995;28;20199;-81
2022/06/29 11:02:11;;;;;;;3.80;2.47;;;;;;;-145.69;80.64;70226.56;5053174;28;20658;-83
2022/06/29 11:04:38;;;;;;;9.18;2.85;;;;;;;-145.69;79.90;70242.47;5053128;28;20203;-80
2022/06/29 11:12:35;;;;;;;3.60;2.40;;;;;;;-145.69;78.81;70232.53;5053301;28;20337;-81
2022/06/29 11:17:46;;;;;;;8.88;2.63;;;;;;;-145.69;77.06;70147.00;5052914;28;20305;-84
2022/06/29 11:20:20;;;;;;;4.28;2.65;;;;;;;-145.69;73.60;70109.19;5053108;28;20199;-81
2022/06/29 11:22:50;;;;;;;5.72;2.75;;;;;;;-145.69;72.61;70103.22;5052976;28;20206;-81
2022/06/29 11:25:17;;;;;;;5.10;2.70;;;;;;;-145.69;75.62;70109.19;5051964;28;20199;-82
2022/06/29 11:27:45;;;;;;;3.92;2.90;;;;;;;-145.69;76.07;70156.94;5052906;28;20234;-82
2022/06/29 11:30:15;;;;;;;3.90;2.58;;;;;;;-145.69;75.34;70125.09;5052719;28;20200;-80
2022/06/29 11:32:43;;;;;;;4.82;2.25;;;;;;;-145.69;70.09;70071.41;5052940;28;20200;-81